sensor_id;sensor_type;location;lat;lon;timestamp;temperature;humidity
64396;DHT22;50717;53.360;6.290;2022-11-04T00:00:53;11.60;99.90
64396;DHT22;50717;53.360;6.290;2022-11-04T00:03:18;11.60;99.90
64396;DHT22;50717;53.360;6.290;2022-11-04T00:05:44;11.70;99.90
64396;DHT22;50717;53.360;6.290;2022-11-04T00:08:10;11.50;99.90
64396;DHT22;50717;53.360;6.290;2022-11-04T00:10:52;11.70;99.90
64396;DHT22;50717;53.360;6.290;2022-11-04T00:13:36;11.70;99.90
64396;DHT22;50717;53.360;6.290;2022-11-04T00:16:02;11.10;99.90
64396;DHT22;50717;53.360;6.290;2022-11-04T00:18:46;11.10;99.90
64396;DHT22;50717;53.360;6.290;2022-11-04T00:21:12;12.20;99.90
64396;DHT22;50717;53.360;6.290;2022-11-04T00:23:56;10.90;99.90
64396;DHT22;50717;53.360;6.290;2022-11-04T00:26:40;11.30;99.90
64396;DHT22;50717;53.360;6.290;2022-11-04T00:29:25;10.90;99.90
64396;DHT22;50717;53.360;6.290;2022-11-04T00:31:50;11.00;99.90
64396;DHT22;50717;53.360;6.290;2022-11-04T00:34:34;11.20;99.90
64396;DHT22;50717;53.360;6.290;2022-11-04T00:37:00;11.50;99.90
64396;DHT22;50717;53.360;6.290;2022-11-04T00:39:28;10.70;99.90
64396;DHT22;50717;53.360;6.290;2022-11-04T00:41:53;11.10;99.90
64396;DHT22;50717;53.360;6.290;2022-11-04T00:44:19;10.80;99.90
64396;DHT22;50717;53.360;6.290;2022-11-04T00:46:45;11.30;99.90
64396;DHT22;50717;53.360;6.290;2022-11-04T00:49:10;11.10;99.90
64396;DHT22;50717;53.360;6.290;2022-11-04T00:51:37;10.50;99.90
64396;DHT22;50717;53.360;6.290;2022-11-04T00:54:03;10.70;99.90
64396;DHT22;50717;53.360;6.290;2022-11-04T00:56:29;11.30;99.90
64396;DHT22;50717;53.360;6.290;2022-11-04T00:58:55;10.90;99.90
64396;DHT22;50717;53.360;6.290;2022-11-04T01:01:20;10.40;99.90
64396;DHT22;50717;53.360;6.290;2022-11-04T01:03:48;10.80;99.90
64396;DHT22;50717;53.360;6.290;2022-11-04T01:06:15;11.20;99.90
64396;DHT22;50717;53.360;6.290;2022-11-04T01:08:40;10.90;99.90
64396;DHT22;50717;53.360;6.290;2022-11-04T01:11:08;11.50;99.90
64396;DHT22;50717;53.360;6.290;2022-11-04T01:13:35;10.60;99.90
64396;DHT22;50717;53.360;6.290;2022-11-04T01:16:02;10.20;99.90
64396;DHT22;50717;53.360;6.290;2022-11-04T01:18:28;10.80;99.90
64396;DHT22;50717;53.360;6.290;2022-11-04T01:20:54;10.40;99.90
64396;DHT22;50717;53.360;6.290;2022-11-04T01:23:20;11.10;99.90
64396;DHT22;50717;53.360;6.290;2022-11-04T01:25:45;10.50;99.90
64396;DHT22;50717;53.360;6.290;2022-11-04T01:28:11;10.90;99.90
64396;DHT22;50717;53.360;6.290;2022-11-04T01:30:37;10.80;99.90
64396;DHT22;50717;53.360;6.290;2022-11-04T01:33:03;10.50;99.90
64396;DHT22;50717;53.360;6.290;2022-11-04T01:35:30;10.70;99.90
64396;DHT22;50717;53.360;6.290;2022-11-04T01:37:57;10.60;99.90
64396;DHT22;50717;53.360;6.290;2022-11-04T01:40:24;11.40;99.90
64396;DHT22;50717;53.360;6.290;2022-11-04T01:42:49;10.50;99.90
64396;DHT22;50717;53.360;6.290;2022-11-04T01:45:17;11.20;99.90
64396;DHT22;50717;53.360;6.290;2022-11-04T01:47:59;10.90;99.90
64396;DHT22;50717;53.360;6.290;2022-11-04T01:50:28;10.60;99.90
64396;DHT22;50717;53.360;6.290;2022-11-04T01:55:30;10.50;99.90
64396;DHT22;50717;53.360;6.290;2022-11-04T01:58:03;10.40;99.90
64396;DHT22;50717;53.360;6.290;2022-11-04T02:00:31;10.50;99.90
64396;DHT22;50717;53.360;6.290;2022-11-04T02:03:06;10.40;99.90
64396;DHT22;50717;53.360;6.290;2022-11-04T02:05:33;10.60;99.90
64396;DHT22;50717;53.360;6.290;2022-11-04T02:08:02;10.60;99.90
64396;DHT22;50717;53.360;6.290;2022-11-04T02:10:29;10.70;99.90
64396;DHT22;50717;53.360;6.290;2022-11-04T02:12:57;10.40;99.90
64396;DHT22;50717;53.360;6.290;2022-11-04T02:30:00;10.50;99.90
64396;DHT22;50717;53.360;6.290;2022-11-04T02:32:41;10.40;99.90
64396;DHT22;50717;53.360;6.290;2022-11-04T02:46:02;10.00;99.90
64396;DHT22;50717;53.360;6.290;2022-11-04T02:48:37;10.40;99.90
64396;DHT22;50717;53.360;6.290;2022-11-04T02:54:16;10.30;99.90
64396;DHT22;50717;53.360;6.290;2022-11-04T02:56:49;12.70;99.90
64396;DHT22;50717;53.360;6.290;2022-11-04T02:59:40;10.00;99.90
64396;DHT22;50717;53.360;6.290;2022-11-04T03:02:16;10.50;99.90
64396;DHT22;50717;53.360;6.290;2022-11-04T03:04:47;10.20;99.90
64396;DHT22;50717;53.360;6.290;2022-11-04T03:07:16;10.10;99.90
64396;DHT22;50717;53.360;6.290;2022-11-04T03:09:47;10.10;99.90
64396;DHT22;50717;53.360;6.290;2022-11-04T03:12:17;10.00;99.90
64396;DHT22;50717;53.360;6.290;2022-11-04T03:14:53;10.20;99.90
64396;DHT22;50717;53.360;6.290;2022-11-04T03:17:30;11.60;99.90
64396;DHT22;50717;53.360;6.290;2022-11-04T03:19:58;9.80;99.90
64396;DHT22;50717;53.360;6.290;2022-11-04T03:22:26;10.10;99.90
64396;DHT22;50717;53.360;6.290;2022-11-04T03:24:54;10.00;99.90
64396;DHT22;50717;53.360;6.290;2022-11-04T03:33:03;9.80;99.90
64396;DHT22;50717;53.360;6.290;2022-11-04T03:35:30;10.00;99.90
64396;DHT22;50717;53.360;6.290;2022-11-04T03:37:57;9.80;99.90
64396;DHT22;50717;53.360;6.290;2022-11-04T03:40:23;11.00;99.90
64396;DHT22;50717;53.360;6.290;2022-11-04T03:43:20;10.40;99.90
64396;DHT22;50717;53.360;6.290;2022-11-04T03:45:49;9.70;99.90
64396;DHT22;50717;53.360;6.290;2022-11-04T03:48:15;10.00;99.90
64396;DHT22;50717;53.360;6.290;2022-11-04T03:50:43;9.80;99.90
64396;DHT22;50717;53.360;6.290;2022-11-04T03:53:10;10.10;99.90
64396;DHT22;50717;53.360;6.290;2022-11-04T03:59:02;10.10;99.90
64396;DHT22;50717;53.360;6.290;2022-11-04T04:01:51;9.80;99.90
64396;DHT22;50717;53.360;6.290;2022-11-04T04:04:20;11.60;99.90
64396;DHT22;50717;53.360;6.290;2022-11-04T04:06:50;10.10;99.90
64396;DHT22;50717;53.360;6.290;2022-11-04T04:09:24;10.10;99.90
64396;DHT22;50717;53.360;6.290;2022-11-04T04:12:00;10.00;99.90
64396;DHT22;50717;53.360;6.290;2022-11-04T04:17:35;10.00;99.90
64396;DHT22;50717;53.360;6.290;2022-11-04T04:20:14;9.90;99.90
64396;DHT22;50717;53.360;6.290;2022-11-04T04:22:52;9.70;99.90
64396;DHT22;50717;53.360;6.290;2022-11-04T04:25:21;10.20;99.90
64396;DHT22;50717;53.360;6.290;2022-11-04T04:28:07;10.30;99.90
64396;DHT22;50717;53.360;6.290;2022-11-04T04:30:34;10.30;99.90
64396;DHT22;50717;53.360;6.290;2022-11-04T04:33:05;9.80;99.90
64396;DHT22;50717;53.360;6.290;2022-11-04T04:35:37;9.40;99.90
64396;DHT22;50717;53.360;6.290;2022-11-04T04:38:16;10.00;99.90
64396;DHT22;50717;53.360;6.290;2022-11-04T04:41:27;10.20;99.90
64396;DHT22;50717;53.360;6.290;2022-11-04T04:44:25;9.90;99.90
64396;DHT22;50717;53.360;6.290;2022-11-04T04:47:14;10.10;99.90
64396;DHT22;50717;53.360;6.290;2022-11-04T04:49:52;9.70;99.90
64396;DHT22;50717;53.360;6.290;2022-11-04T04:52:18;10.40;99.90
64396;DHT22;50717;53.360;6.290;2022-11-04T04:54:45;9.50;99.90
64396;DHT22;50717;53.360;6.290;2022-11-04T04:57:10;9.90;99.90
64396;DHT22;50717;53.360;6.290;2022-11-04T04:59:36;9.60;99.90
64396;DHT22;50717;53.360;6.290;2022-11-04T05:02:02;10.30;99.90
64396;DHT22;50717;53.360;6.290;2022-11-04T05:04:28;9.50;99.90
64396;DHT22;50717;53.360;6.290;2022-11-04T05:06:54;10.20;99.90
64396;DHT22;50717;53.360;6.290;2022-11-04T05:09:20;10.20;99.90
64396;DHT22;50717;53.360;6.290;2022-11-04T05:11:45;9.40;99.90
64396;DHT22;50717;53.360;6.290;2022-11-04T05:14:11;9.80;99.90
64396;DHT22;50717;53.360;6.290;2022-11-04T05:16:37;9.70;99.90
64396;DHT22;50717;53.360;6.290;2022-11-04T05:19:02;10.00;99.90
64396;DHT22;50717;53.360;6.290;2022-11-04T05:21:28;10.80;99.90
64396;DHT22;50717;53.360;6.290;2022-11-04T05:23:54;9.10;99.90
64396;DHT22;50717;53.360;6.290;2022-11-04T05:26:20;10.10;99.90
64396;DHT22;50717;53.360;6.290;2022-11-04T05:28:46;9.70;99.90
64396;DHT22;50717;53.360;6.290;2022-11-04T05:31:12;10.80;99.90
64396;DHT22;50717;53.360;6.290;2022-11-04T05:33:37;10.10;99.90
64396;DHT22;50717;53.360;6.290;2022-11-04T05:36:08;10.00;99.90
64396;DHT22;50717;53.360;6.290;2022-11-04T05:38:35;9.60;99.90
64396;DHT22;50717;53.360;6.290;2022-11-04T05:41:01;10.10;99.90
64396;DHT22;50717;53.360;6.290;2022-11-04T05:43:27;10.30;99.90
64396;DHT22;50717;53.360;6.290;2022-11-04T05:45:53;10.60;99.90
64396;DHT22;50717;53.360;6.290;2022-11-04T05:48:19;10.30;99.90
64396;DHT22;50717;53.360;6.290;2022-11-04T05:50:45;10.40;99.90
64396;DHT22;50717;53.360;6.290;2022-11-04T05:53:11;9.50;99.90
64396;DHT22;50717;53.360;6.290;2022-11-04T05:55:37;9.60;99.90
64396;DHT22;50717;53.360;6.290;2022-11-04T05:58:02;10.50;99.90
64396;DHT22;50717;53.360;6.290;2022-11-04T06:00:28;10.40;99.90
64396;DHT22;50717;53.360;6.290;2022-11-04T06:02:54;10.10;99.90
64396;DHT22;50717;53.360;6.290;2022-11-04T06:05:23;9.50;99.90
64396;DHT22;50717;53.360;6.290;2022-11-04T06:07:49;9.70;99.90
64396;DHT22;50717;53.360;6.290;2022-11-04T06:10:15;9.80;99.90
64396;DHT22;50717;53.360;6.290;2022-11-04T06:12:41;9.00;99.90
64396;DHT22;50717;53.360;6.290;2022-11-04T06:15:07;9.30;99.90
64396;DHT22;50717;53.360;6.290;2022-11-04T06:17:33;9.80;99.90
64396;DHT22;50717;53.360;6.290;2022-11-04T06:19:59;9.70;99.90
64396;DHT22;50717;53.360;6.290;2022-11-04T06:22:24;9.80;99.90
64396;DHT22;50717;53.360;6.290;2022-11-04T06:24:50;9.70;99.90
64396;DHT22;50717;53.360;6.290;2022-11-04T06:27:16;10.30;99.90
64396;DHT22;50717;53.360;6.290;2022-11-04T06:29:41;9.00;99.90
64396;DHT22;50717;53.360;6.290;2022-11-04T06:32:09;9.50;99.90
64396;DHT22;50717;53.360;6.290;2022-11-04T06:34:35;9.20;99.90
64396;DHT22;50717;53.360;6.290;2022-11-04T06:37:01;9.50;99.90
64396;DHT22;50717;53.360;6.290;2022-11-04T06:39:27;9.80;99.90
64396;DHT22;50717;53.360;6.290;2022-11-04T06:41:53;9.10;99.90
64396;DHT22;50717;53.360;6.290;2022-11-04T06:44:18;9.00;99.90
64396;DHT22;50717;53.360;6.290;2022-11-04T06:46:44;9.20;99.90
64396;DHT22;50717;53.360;6.290;2022-11-04T06:49:17;9.10;99.90
64396;DHT22;50717;53.360;6.290;2022-11-04T06:51:45;9.60;99.90
64396;DHT22;50717;53.360;6.290;2022-11-04T06:54:12;9.00;99.90
64396;DHT22;50717;53.360;6.290;2022-11-04T06:56:38;10.40;99.90
64396;DHT22;50717;53.360;6.290;2022-11-04T06:59:04;10.60;99.90
64396;DHT22;50717;53.360;6.290;2022-11-04T07:01:32;9.50;99.90
64396;DHT22;50717;53.360;6.290;2022-11-04T07:03:59;8.70;99.90
64396;DHT22;50717;53.360;6.290;2022-11-04T07:06:26;8.60;99.90
64396;DHT22;50717;53.360;6.290;2022-11-04T07:08:54;9.40;99.90
64396;DHT22;50717;53.360;6.290;2022-11-04T07:11:21;9.10;99.90
64396;DHT22;50717;53.360;6.290;2022-11-04T07:13:47;9.30;99.90
64396;DHT22;50717;53.360;6.290;2022-11-04T07:16:13;8.70;99.90
64396;DHT22;50717;53.360;6.290;2022-11-04T07:18:40;9.00;99.90
64396;DHT22;50717;53.360;6.290;2022-11-04T07:21:07;8.80;99.90
64396;DHT22;50717;53.360;6.290;2022-11-04T07:23:32;8.80;99.90
64396;DHT22;50717;53.360;6.290;2022-11-04T07:26:04;9.20;99.90
64396;DHT22;50717;53.360;6.290;2022-11-04T07:28:30;8.80;99.90
64396;DHT22;50717;53.360;6.290;2022-11-04T07:30:56;8.50;99.90
64396;DHT22;50717;53.360;6.290;2022-11-04T07:33:23;8.70;99.90
64396;DHT22;50717;53.360;6.290;2022-11-04T07:35:49;8.70;99.90
64396;DHT22;50717;53.360;6.290;2022-11-04T07:38:15;8.60;99.90
64396;DHT22;50717;53.360;6.290;2022-11-04T07:40:41;8.70;99.90
64396;DHT22;50717;53.360;6.290;2022-11-04T07:43:06;9.00;99.90
64396;DHT22;50717;53.360;6.290;2022-11-04T07:45:32;9.40;99.90
64396;DHT22;50717;53.360;6.290;2022-11-04T07:47:58;8.70;99.90
64396;DHT22;50717;53.360;6.290;2022-11-04T07:50:23;8.70;99.90
64396;DHT22;50717;53.360;6.290;2022-11-04T07:52:49;8.80;99.90
64396;DHT22;50717;53.360;6.290;2022-11-04T07:55:18;9.10;99.90
64396;DHT22;50717;53.360;6.290;2022-11-04T07:57:44;8.80;99.90
64396;DHT22;50717;53.360;6.290;2022-11-04T08:00:11;9.10;99.90
64396;DHT22;50717;53.360;6.290;2022-11-04T08:02:37;9.10;99.90
64396;DHT22;50717;53.360;6.290;2022-11-04T08:05:03;9.00;99.90
64396;DHT22;50717;53.360;6.290;2022-11-04T08:07:31;9.10;99.90
64396;DHT22;50717;53.360;6.290;2022-11-04T08:09:56;9.20;99.90
64396;DHT22;50717;53.360;6.290;2022-11-04T08:12:22;9.20;99.90
64396;DHT22;50717;53.360;6.290;2022-11-04T08:14:49;9.30;99.90
64396;DHT22;50717;53.360;6.290;2022-11-04T08:17:14;9.60;99.90
64396;DHT22;50717;53.360;6.290;2022-11-04T08:19:40;9.40;99.90
64396;DHT22;50717;53.360;6.290;2022-11-04T08:22:06;9.40;99.90
64396;DHT22;50717;53.360;6.290;2022-11-04T08:24:33;9.40;99.90
64396;DHT22;50717;53.360;6.290;2022-11-04T08:26:58;9.10;99.90
64396;DHT22;50717;53.360;6.290;2022-11-04T08:29:24;9.60;99.90
64396;DHT22;50717;53.360;6.290;2022-11-04T08:31:50;9.20;99.90
64396;DHT22;50717;53.360;6.290;2022-11-04T08:34:15;9.70;99.90
64396;DHT22;50717;53.360;6.290;2022-11-04T08:39:09;9.50;99.90
64396;DHT22;50717;53.360;6.290;2022-11-04T08:41:36;9.10;99.90
64396;DHT22;50717;53.360;6.290;2022-11-04T08:44:03;9.60;99.90
64396;DHT22;50717;53.360;6.290;2022-11-04T08:46:35;9.60;99.90
64396;DHT22;50717;53.360;6.290;2022-11-04T08:49:02;9.80;99.90
64396;DHT22;50717;53.360;6.290;2022-11-04T08:51:30;9.90;99.90
64396;DHT22;50717;53.360;6.290;2022-11-04T08:53:56;10.10;99.90
64396;DHT22;50717;53.360;6.290;2022-11-04T08:56:25;10.40;99.90
64396;DHT22;50717;53.360;6.290;2022-11-04T08:58:52;10.50;99.90
64396;DHT22;50717;53.360;6.290;2022-11-04T09:01:18;10.20;99.90
64396;DHT22;50717;53.360;6.290;2022-11-04T09:03:45;10.80;99.90
64396;DHT22;50717;53.360;6.290;2022-11-04T09:06:14;10.80;99.90
64396;DHT22;50717;53.360;6.290;2022-11-04T09:08:40;11.10;99.90
64396;DHT22;50717;53.360;6.290;2022-11-04T09:11:10;10.60;99.90
64396;DHT22;50717;53.360;6.290;2022-11-04T09:13:36;11.20;99.90
64396;DHT22;50717;53.360;6.290;2022-11-04T09:16:03;11.00;99.90
64396;DHT22;50717;53.360;6.290;2022-11-04T09:18:29;11.10;99.90
64396;DHT22;50717;53.360;6.290;2022-11-04T09:20:55;11.10;99.90
64396;DHT22;50717;53.360;6.290;2022-11-04T09:23:24;10.80;99.90
64396;DHT22;50717;53.360;6.290;2022-11-04T09:25:50;10.80;99.90
64396;DHT22;50717;53.360;6.290;2022-11-04T09:28:16;10.80;99.90
64396;DHT22;50717;53.360;6.290;2022-11-04T09:30:41;11.00;99.90
64396;DHT22;50717;53.360;6.290;2022-11-04T09:33:07;11.10;99.90
64396;DHT22;50717;53.360;6.290;2022-11-04T09:35:33;11.10;99.90
64396;DHT22;50717;53.360;6.290;2022-11-04T09:37:59;11.00;99.90
64396;DHT22;50717;53.360;6.290;2022-11-04T09:40:26;11.10;99.90
64396;DHT22;50717;53.360;6.290;2022-11-04T09:43:08;10.70;99.90
64396;DHT22;50717;53.360;6.290;2022-11-04T09:45:40;10.70;99.90
64396;DHT22;50717;53.360;6.290;2022-11-04T09:48:13;10.90;99.90
64396;DHT22;50717;53.360;6.290;2022-11-04T09:50:50;10.80;99.90
64396;DHT22;50717;53.360;6.290;2022-11-04T09:53:21;11.00;99.90
64396;DHT22;50717;53.360;6.290;2022-11-04T09:55:56;11.60;99.90
64396;DHT22;50717;53.360;6.290;2022-11-04T09:58:22;10.90;99.90
64396;DHT22;50717;53.360;6.290;2022-11-04T10:00:50;11.30;99.90
64396;DHT22;50717;53.360;6.290;2022-11-04T10:03:26;11.00;99.90
64396;DHT22;50717;53.360;6.290;2022-11-04T10:08:52;11.30;99.90
64396;DHT22;50717;53.360;6.290;2022-11-04T10:14:44;12.00;99.90
64396;DHT22;50717;53.360;6.290;2022-11-04T10:20:36;12.10;99.90
64396;DHT22;50717;53.360;6.290;2022-11-04T10:23:25;11.80;99.90
64396;DHT22;50717;53.360;6.290;2022-11-04T10:26:09;12.00;99.90
64396;DHT22;50717;53.360;6.290;2022-11-04T10:28:45;12.30;99.90
64396;DHT22;50717;53.360;6.290;2022-11-04T10:31:14;12.20;99.90
64396;DHT22;50717;53.360;6.290;2022-11-04T10:33:53;12.70;99.90
64396;DHT22;50717;53.360;6.290;2022-11-04T10:36:20;13.10;99.90
64396;DHT22;50717;53.360;6.290;2022-11-04T10:38:50;13.00;99.90
64396;DHT22;50717;53.360;6.290;2022-11-04T10:43:50;12.70;99.90
64396;DHT22;50717;53.360;6.290;2022-11-04T10:52:09;12.30;99.90
64396;DHT22;50717;53.360;6.290;2022-11-04T10:54:41;12.30;99.90
64396;DHT22;50717;53.360;6.290;2022-11-04T10:57:08;12.30;99.90
64396;DHT22;50717;53.360;6.290;2022-11-04T10:59:57;12.10;99.90
64396;DHT22;50717;53.360;6.290;2022-11-04T11:02:43;12.00;99.90
64396;DHT22;50717;53.360;6.290;2022-11-04T11:07:49;11.50;99.90
64396;DHT22;50717;53.360;6.290;2022-11-04T11:10:29;11.40;99.90
64396;DHT22;50717;53.360;6.290;2022-11-04T11:12:59;11.20;99.90
64396;DHT22;50717;53.360;6.290;2022-11-04T11:18:14;11.80;99.90
64396;DHT22;50717;53.360;6.290;2022-11-04T11:20:42;11.30;99.90
64396;DHT22;50717;53.360;6.290;2022-11-04T11:23:32;11.00;99.90
64396;DHT22;50717;53.360;6.290;2022-11-04T11:25:58;11.20;99.90
64396;DHT22;50717;53.360;6.290;2022-11-04T11:28:25;11.40;99.90
64396;DHT22;50717;53.360;6.290;2022-11-04T11:30:55;10.90;99.90
64396;DHT22;50717;53.360;6.290;2022-11-04T11:33:32;11.10;99.90
64396;DHT22;50717;53.360;6.290;2022-11-04T11:36:25;11.00;99.90
64396;DHT22;50717;53.360;6.290;2022-11-04T11:38:52;11.20;99.90
64396;DHT22;50717;53.360;6.290;2022-11-04T11:41:19;11.00;99.90
64396;DHT22;50717;53.360;6.290;2022-11-04T11:43:53;10.80;99.90
64396;DHT22;50717;53.360;6.290;2022-11-04T11:46:28;10.90;99.90
64396;DHT22;50717;53.360;6.290;2022-11-04T11:48:57;10.90;99.90
64396;DHT22;50717;53.360;6.290;2022-11-04T11:51:36;10.50;99.90
64396;DHT22;50717;53.360;6.290;2022-11-04T11:54:11;12.10;99.90
64396;DHT22;50717;53.360;6.290;2022-11-04T11:56:41;11.10;99.90
64396;DHT22;50717;53.360;6.290;2022-11-04T12:04:37;11.50;99.90
64396;DHT22;50717;53.360;6.290;2022-11-04T12:07:19;11.00;99.90
64396;DHT22;50717;53.360;6.290;2022-11-04T12:10:01;12.30;99.90
64396;DHT22;50717;53.360;6.290;2022-11-04T12:17:57;11.40;99.90
64396;DHT22;50717;53.360;6.290;2022-11-04T12:21:13;11.40;99.90
64396;DHT22;50717;53.360;6.290;2022-11-04T12:23:55;11.50;99.90
64396;DHT22;50717;53.360;6.290;2022-11-04T12:34:41;12.80;99.90
64396;DHT22;50717;53.360;6.290;2022-11-04T12:37:34;13.30;99.90
64396;DHT22;50717;53.360;6.290;2022-11-04T12:40:28;13.50;99.90
64396;DHT22;50717;53.360;6.290;2022-11-04T12:46:02;14.00;99.90
64396;DHT22;50717;53.360;6.290;2022-11-04T12:51:45;14.30;99.90
64396;DHT22;50717;53.360;6.290;2022-11-04T12:57:17;14.50;99.90
64396;DHT22;50717;53.360;6.290;2022-11-04T13:02:31;14.10;99.90
64396;DHT22;50717;53.360;6.290;2022-11-04T13:05:06;14.60;99.90
64396;DHT22;50717;53.360;6.290;2022-11-04T13:07:48;14.70;99.90
64396;DHT22;50717;53.360;6.290;2022-11-04T13:10:26;14.30;99.90
64396;DHT22;50717;53.360;6.290;2022-11-04T13:12:55;14.20;99.90
64396;DHT22;50717;53.360;6.290;2022-11-04T13:15:27;14.00;99.90
64396;DHT22;50717;53.360;6.290;2022-11-04T13:18:03;13.20;99.90
64396;DHT22;50717;53.360;6.290;2022-11-04T13:23:38;12.60;99.90
64396;DHT22;50717;53.360;6.290;2022-11-04T13:26:10;13.00;99.90
64396;DHT22;50717;53.360;6.290;2022-11-04T13:28:39;12.70;99.90
64396;DHT22;50717;53.360;6.290;2022-11-04T13:31:34;12.80;99.90
64396;DHT22;50717;53.360;6.290;2022-11-04T13:37:23;12.10;99.90
64396;DHT22;50717;53.360;6.290;2022-11-04T13:40:25;11.80;99.90
64396;DHT22;50717;53.360;6.290;2022-11-04T13:43:15;12.00;99.90
64396;DHT22;50717;53.360;6.290;2022-11-04T13:46:02;12.10;99.90
64396;DHT22;50717;53.360;6.290;2022-11-04T13:48:31;12.20;99.90
64396;DHT22;50717;53.360;6.290;2022-11-04T13:51:05;12.30;99.90
64396;DHT22;50717;53.360;6.290;2022-11-04T13:56:36;12.50;99.90
64396;DHT22;50717;53.360;6.290;2022-11-04T13:59:30;12.40;99.90
64396;DHT22;50717;53.360;6.290;2022-11-04T14:04:38;12.50;99.90
64396;DHT22;50717;53.360;6.290;2022-11-04T14:07:06;12.20;99.90
64396;DHT22;50717;53.360;6.290;2022-11-04T14:09:54;12.50;99.90
64396;DHT22;50717;53.360;6.290;2022-11-04T14:12:31;13.00;99.90
64396;DHT22;50717;53.360;6.290;2022-11-04T14:15:14;12.30;99.90
64396;DHT22;50717;53.360;6.290;2022-11-04T14:20:25;12.20;99.90
64396;DHT22;50717;53.360;6.290;2022-11-04T14:22:54;12.10;99.90
64396;DHT22;50717;53.360;6.290;2022-11-04T14:30:55;12.20;99.90
64396;DHT22;50717;53.360;6.290;2022-11-04T14:44:13;11.80;99.90
64396;DHT22;50717;53.360;6.290;2022-11-04T14:46:47;11.60;99.90
64396;DHT22;50717;53.360;6.290;2022-11-04T14:52:34;11.80;99.90
64396;DHT22;50717;53.360;6.290;2022-11-04T14:57:38;11.20;99.90
64396;DHT22;50717;53.360;6.290;2022-11-04T15:03:13;11.50;99.90
64396;DHT22;50717;53.360;6.290;2022-11-04T15:05:44;11.40;99.90
64396;DHT22;50717;53.360;6.290;2022-11-04T15:13:47;11.40;99.90
64396;DHT22;50717;53.360;6.290;2022-11-04T15:16:19;11.60;99.90
64396;DHT22;50717;53.360;6.290;2022-11-04T15:18:47;11.80;99.90
64396;DHT22;50717;53.360;6.290;2022-11-04T15:21:12;11.80;99.90
64396;DHT22;50717;53.360;6.290;2022-11-04T15:23:44;11.50;99.90
64396;DHT22;50717;53.360;6.290;2022-11-04T15:26:26;12.30;99.90
64396;DHT22;50717;53.360;6.290;2022-11-04T15:28:53;11.70;99.90
64396;DHT22;50717;53.360;6.290;2022-11-04T15:31:24;11.80;99.90
64396;DHT22;50717;53.360;6.290;2022-11-04T15:33:54;11.30;99.90
64396;DHT22;50717;53.360;6.290;2022-11-04T15:36:23;11.30;99.90
64396;DHT22;50717;53.360;6.290;2022-11-04T15:38:59;11.10;99.90
64396;DHT22;50717;53.360;6.290;2022-11-04T15:41:28;11.30;99.90
64396;DHT22;50717;53.360;6.290;2022-11-04T15:44:19;11.10;99.90
64396;DHT22;50717;53.360;6.290;2022-11-04T15:46:52;11.00;99.90
64396;DHT22;50717;53.360;6.290;2022-11-04T15:49:27;11.00;99.90
64396;DHT22;50717;53.360;6.290;2022-11-04T15:51:58;10.80;99.90
64396;DHT22;50717;53.360;6.290;2022-11-04T15:54:27;10.70;99.90
64396;DHT22;50717;53.360;6.290;2022-11-04T15:56:56;10.70;99.90
64396;DHT22;50717;53.360;6.290;2022-11-04T15:59:33;11.00;99.90
64396;DHT22;50717;53.360;6.290;2022-11-04T16:02:01;10.90;99.90
64396;DHT22;50717;53.360;6.290;2022-11-04T16:04:28;10.90;99.90
64396;DHT22;50717;53.360;6.290;2022-11-04T16:09:46;10.80;99.90
64396;DHT22;50717;53.360;6.290;2022-11-04T16:14:46;10.60;99.90
64396;DHT22;50717;53.360;6.290;2022-11-04T16:17:12;10.80;99.90
64396;DHT22;50717;53.360;6.290;2022-11-04T16:19:38;10.50;99.90
64396;DHT22;50717;53.360;6.290;2022-11-04T16:22:06;10.60;99.90
64396;DHT22;50717;53.360;6.290;2022-11-04T16:24:35;10.40;99.90
64396;DHT22;50717;53.360;6.290;2022-11-04T16:27:02;10.50;99.90
64396;DHT22;50717;53.360;6.290;2022-11-04T16:29:30;10.20;99.90
64396;DHT22;50717;53.360;6.290;2022-11-04T16:32:13;9.90;99.90
64396;DHT22;50717;53.360;6.290;2022-11-04T16:34:39;9.90;99.90
64396;DHT22;50717;53.360;6.290;2022-11-04T16:37:05;10.30;99.90
64396;DHT22;50717;53.360;6.290;2022-11-04T16:39:30;9.90;99.90
64396;DHT22;50717;53.360;6.290;2022-11-04T16:41:57;9.80;99.90
64396;DHT22;50717;53.360;6.290;2022-11-04T16:44:23;9.90;99.90
64396;DHT22;50717;53.360;6.290;2022-11-04T16:46:49;9.80;99.90
64396;DHT22;50717;53.360;6.290;2022-11-04T16:49:17;10.80;99.90
64396;DHT22;50717;53.360;6.290;2022-11-04T16:51:43;10.30;99.90
64396;DHT22;50717;53.360;6.290;2022-11-04T16:54:09;10.10;99.90
64396;DHT22;50717;53.360;6.290;2022-11-04T16:56:36;10.20;99.90
64396;DHT22;50717;53.360;6.290;2022-11-04T16:59:02;10.10;99.90
64396;DHT22;50717;53.360;6.290;2022-11-04T17:01:29;9.80;99.90
64396;DHT22;50717;53.360;6.290;2022-11-04T17:03:56;10.30;99.90
64396;DHT22;50717;53.360;6.290;2022-11-04T17:06:22;10.80;99.90
64396;DHT22;50717;53.360;6.290;2022-11-04T17:08:48;9.90;99.90
64396;DHT22;50717;53.360;6.290;2022-11-04T17:11:14;10.10;99.90
64396;DHT22;50717;53.360;6.290;2022-11-04T17:13:39;10.10;99.90
64396;DHT22;50717;53.360;6.290;2022-11-04T17:16:06;10.30;99.90
64396;DHT22;50717;53.360;6.290;2022-11-04T17:18:33;9.80;99.90
64396;DHT22;50717;53.360;6.290;2022-11-04T17:21:04;9.40;99.90
64396;DHT22;50717;53.360;6.290;2022-11-04T17:23:30;9.90;99.90
64396;DHT22;50717;53.360;6.290;2022-11-04T17:25:56;9.70;99.90
64396;DHT22;50717;53.360;6.290;2022-11-04T17:28:21;9.70;99.90
64396;DHT22;50717;53.360;6.290;2022-11-04T17:30:47;9.50;99.90
64396;DHT22;50717;53.360;6.290;2022-11-04T17:33:15;10.20;99.90
64396;DHT22;50717;53.360;6.290;2022-11-04T17:35:43;9.60;99.90
64396;DHT22;50717;53.360;6.290;2022-11-04T17:38:10;9.30;99.90
64396;DHT22;50717;53.360;6.290;2022-11-04T17:40:37;9.60;99.90
64396;DHT22;50717;53.360;6.290;2022-11-04T17:43:23;9.20;99.90
64396;DHT22;50717;53.360;6.290;2022-11-04T17:46:08;9.20;99.90
64396;DHT22;50717;53.360;6.290;2022-11-04T17:48:52;9.00;99.90
64396;DHT22;50717;53.360;6.290;2022-11-04T17:51:18;9.00;99.90
64396;DHT22;50717;53.360;6.290;2022-11-04T17:53:43;8.90;99.90
64396;DHT22;50717;53.360;6.290;2022-11-04T17:56:13;9.20;99.90
64396;DHT22;50717;53.360;6.290;2022-11-04T17:58:39;9.00;99.90
64396;DHT22;50717;53.360;6.290;2022-11-04T18:01:06;8.90;99.90
64396;DHT22;50717;53.360;6.290;2022-11-04T18:03:32;8.90;99.90
64396;DHT22;50717;53.360;6.290;2022-11-04T18:05:58;9.20;99.90
64396;DHT22;50717;53.360;6.290;2022-11-04T18:08:24;9.50;99.90
64396;DHT22;50717;53.360;6.290;2022-11-04T18:10:50;9.40;99.90
64396;DHT22;50717;53.360;6.290;2022-11-04T18:13:21;9.20;99.90
64396;DHT22;50717;53.360;6.290;2022-11-04T18:15:46;9.30;99.90
64396;DHT22;50717;53.360;6.290;2022-11-04T18:18:12;9.60;99.90
64396;DHT22;50717;53.360;6.290;2022-11-04T18:20:38;9.40;99.90
64396;DHT22;50717;53.360;6.290;2022-11-04T18:23:03;10.70;99.90
64396;DHT22;50717;53.360;6.290;2022-11-04T18:25:29;9.50;99.90